Cedar City, Utah Weather observations

Data are for observation ending at time listed.
 Day   Time    Ave.   Ave.  Ave.  Vector   Max.   Stn.    Total    Solar   Ave.  
  of    of     Air    Rel.  Wind   Wind    Wind   Baro.  Precip.   Rad.    Soil  
Year   Day     Temp.  Hum.  Speed  Dir.    Gust   Pres.                    Temp. 
2026   (MST)    F      %     mph   deg.    mph     mb.     in.     W/m2     F   
------------------------------------------------------------------------------
 125    1:50   48.6    32    2.9   173      5.3   808.3    0.00       0    59.6
 125    2:00   48.5    32    4.3   145     10.5   805.4    0.00       0    59.5
 125    2:10   48.3    32    3.0   143      8.0   805.3    0.00       0    59.3
 125    2:20   48.2    33    3.3   168      8.6   804.3    0.00       0    59.2
 125    2:30   48.0    35    3.4   134      7.7   806.4    0.00       0    59.1
 125    2:40   47.7    37    3.4   120      9.6   805.9    0.00       0    59.0
 125    2:50   47.9    34    3.2   154      7.2   805.2    0.00       0    58.8
 125    3:00   47.8    34    2.9   167      5.9   806.6    0.00       0    58.7
 125    3:10   47.0    37    2.8   120      6.6   807.3    0.00       0    58.5
 125    3:20   47.1    36    2.3   136      6.4   807.7    0.00       0    58.4
 125    3:30   46.4    38    2.5   146      6.1   805.5    0.00       0    58.3
 125    3:40   45.7    37    2.2   155      6.6   805.1    0.00       0    58.2
 125    3:50   45.5    40    1.4   261      4.2   805.6    0.00       0    58.0
 125    4:00   44.9    40    1.7   334      4.2   809.1    0.00       0    57.9
 125    4:10   44.2    42    1.3   239      3.6   804.7    0.00       0    57.8
 125    4:20   43.2    43    1.2   204      2.6   802.3    0.00       0    57.7
 125    4:30   42.6    43    0.8   136      3.1   805.9    0.00       0    57.5
 125    4:40   41.4    46    1.6    26      4.5   809.0    0.00       0    57.3
 125    4:50   41.2    48    2.1    25      4.7   805.0    0.00       0    57.2
 125    5:00   41.0    49    0.9   215      2.7   801.8    0.00       0    57.0
 125    5:10   41.6    47    1.8   150      2.9   808.3    0.00       0    56.8
 125    5:20   41.5    49    1.1    93      3.5   812.0    0.00       0    56.7
 125    5:30   40.5    51    1.0   229      3.1   810.3    0.00       2    56.5
 125    5:40   40.2    50    1.1   198      3.7   808.7    0.00       5    56.4
 125    5:50   40.0    52    0.9   199      2.6   804.7    0.00       9    56.2
 125    6:00   40.3    51    1.6   198      3.2   804.9    0.00      13    56.1
 125    6:10   39.9    51    0.1   192      0.5   802.0    0.00      19    56.0
 125    6:20   40.6    51    0.5   220      2.3   804.8    0.00      29    55.8
 125    6:30   41.9    47    0.6   175      1.9   806.1    0.00      31    55.7
 125    6:40   43.0    45    1.1   174      3.4   807.6    0.00      39    55.5
 125    6:50   44.3    45    0.3   147      1.7   810.6    0.00      54    55.4
 125    7:00   45.4    45    0.6    19      1.5   805.0    0.00     209    55.3
 125    7:10   45.7    43    0.7    32      2.3   807.7    0.00     244    55.2
 125    7:20   46.7    40    1.0   214      3.3   806.7    0.00     255    55.1
 125    7:30   48.1    38    1.5   314      4.5   804.3    0.00     304    55.0
 125    7:40   49.1    37    1.5   242      4.3   806.2    0.00     258    55.0
 125    7:50   49.1    36    2.7   197      6.7   806.9    0.00     271    54.9
 125    8:00   49.8    35    2.6   216      7.2   807.0    0.00     329    54.9
 125    8:10   50.5    34    2.2   222      5.2   807.7    0.00     446    54.8
 125    8:20   51.5    33    2.7   220      7.8   806.2    0.00     478    54.8
 125    8:30   51.0    33    4.3   192      8.5   806.1    0.00     509    54.8
 125    8:40   51.3    32    4.6   172     10.2   809.7    0.00     539    54.8
 125    8:50   51.9    34    4.1   225      8.8   806.3    0.00     568    54.8
 125    9:00   52.7    33    3.7   225     10.4   806.6    0.00     598    54.8
 125    9:10   53.3    32    4.9   223     10.4   808.1    0.00     628    54.8
 125    9:20   52.9    33    5.5   228     11.8   809.7    0.00     657    54.9
 125    9:30   53.9    32    3.4   261      8.7   809.7    0.00     684    54.9
 125    9:40   53.8    32    5.4   212     12.1   811.1    0.00     710    55.0
 125    9:50   53.7    32    4.6   218     11.0   807.0    0.00     736    55.0
 125   10:00   53.6    31    4.6   230     10.8   806.9    0.00     759    55.2
 125   10:10   54.7    29    3.8   221     10.6   808.6    0.00     780    55.4
 125   10:20   55.0    29    3.4   267      8.6   808.9    0.00     802    55.7
 125   10:30   55.1    26    4.0   317     11.0   809.3    0.00     822    56.0
 125   10:40   54.8    26    4.2   238     10.2   808.0    0.00     839    56.3
 125   10:50   54.8    27    4.3   347      8.7   807.3    0.00     855    56.6
 125   11:00   55.5    27    5.2   309     10.4   807.6    0.00     870    57.0
 125   11:10   55.9    28    5.4   350     10.8   808.5    0.00     884    57.4
 125   11:20   56.2    27    4.7   326      9.8   806.7    0.00     899    57.8
 125   11:30   55.8    27    4.3   342      9.6   806.1    0.00     915    58.3
 125   11:40   56.6    26    3.8   324      9.3   809.5    0.00     925    58.7
 125   11:50   58.0    26    3.2   317      8.9   808.2    0.00     934    59.2
 125   12:00   58.0    24    3.7   254      8.2   809.9    0.00     943    59.7
 125   12:10   58.5    24    1.8   255      5.1   807.6    0.00     960    60.2
 125   12:20   58.6    23    5.3   349     12.7   805.5    0.00     957    60.7
 125   12:30   59.1    22    2.4   127      7.8   805.3    0.00     970    61.2
 125   12:40   58.8    23    6.0   337     11.2   809.2    0.00     976    61.7
 125   12:50   58.5    23    5.7   323     12.3   802.6    0.00     993    62.2
 125   13:00   59.6    22    4.2   264     11.2   803.8    0.00    1027    62.7
 125   13:10   59.8    23    4.0   307      9.3   804.5    0.00    1017    63.2
 125   13:20   61.4    22    3.1   348     10.4   804.5    0.00     980    63.7
 125   13:30   60.7    22    4.6   329      9.1   804.0    0.00     698    64.2
 125   13:40   59.5    23    5.7   329     12.6   805.3    0.00     938    64.7
 125   13:50   61.6    22    3.5   302      9.4   805.9    0.00    1021    65.1
 125   14:00   61.4    23    5.6   325     13.6   802.7    0.00     620    65.5
 125   14:10   58.8    24    5.9   328     11.2   801.4    0.00     152    65.8
 125   14:20   58.4    25    5.7   334     11.3   803.4    0.00     199    66.1
 125   14:30   60.0    25    4.4   322     15.3   804.6    0.00     647    66.3
 125   14:40   60.1    25    6.2   324     13.6   803.2    0.00     521    66.5
 125   14:50   61.8    24    3.2   289     10.3   804.3    0.00     979    66.6
 125   15:00   62.5    23    4.4   282     11.2   806.7    0.00     508    66.6
 125   15:10   60.5    24    3.2   290     10.2   803.8    0.00     395    66.7
 125   15:20   60.6    23    5.2   337      9.6   805.2    0.00     587    66.8
 125   15:30   62.5    23    3.8   231      9.8   805.3    0.00     853    66.8
 125   15:40   63.4    21    4.8   296     11.0   807.0    0.00     747    67.0
 125   15:50   62.7    21    3.5   288      7.7   804.7    0.00     756    67.1
 125   16:00   63.4    23    6.6   216     19.3   805.7    0.00     725    67.2
 125   16:10   62.5    23    4.7   224     11.6   806.4    0.00     575    67.3
 125   16:20   62.5    22    5.0   200      9.2   806.1    0.00     592    67.5
 125   16:30   61.9    22    6.1   194     11.5   807.7    0.00     486    67.7
 125   16:40   61.8    22    3.9   226     11.4   806.1    0.00     416    67.9
 125   16:50   62.8    21    4.0   215     12.9   804.2    0.00     497    68.1
 125   17:00   62.3    22    5.0   222     11.5   804.1    0.00     499    68.2
 125   17:10   62.8    21    2.8   301      6.9   804.0    0.00     458    68.3
 125   17:20   63.2    21    3.7   226      9.6   804.2    0.00     262    68.4
 125   17:30   61.1    23    4.2   219      9.9   804.3    0.00     158    68.4
 125   17:40   60.4    24    4.8   215     10.8   804.0    0.00      87    68.5
 125   17:50   59.7    24    4.3   209      8.3   804.3    0.00     108    68.6
 125   18:00   60.1    24    4.1   219      9.4   804.5    0.00     211    68.5
 125   18:10   60.3    24    5.1   215     10.6   803.8    0.00     197    68.5
 125   18:20   60.5    24    3.6   211      8.3   801.2    0.00     241    68.4
 125   18:30   60.2    24    3.5   229     11.1   802.4    0.00     139    68.3
 125   18:40   59.4    25    3.6   229      9.1   807.9    0.00      79    68.1
 125   18:50   59.1    25    3.2   228      7.0   805.9    0.00      65    67.9
 125   19:00   58.7    26    4.0   228     11.0   801.5    0.00      33    67.8
 125   19:10   58.6    25    2.6   288      7.5   803.7    0.00      17    67.6
 125   19:20   58.3    25    5.1   314     12.9   801.0    0.00       9    67.5
 125   19:30   57.5    27    5.7   320     12.9   803.2    0.00       2    67.3
 125   19:40   57.3    27    4.5   319      9.1   804.0    0.00       0    67.1
 125   19:50   57.2    27    2.1   309      5.9   804.7    0.00       0    67.0
 125   20:00   57.0    27    2.6   297      8.0   800.7    0.00       0    66.8
 125   20:10   56.9    27    1.6   291      5.4   807.2    0.00       0    66.6
 125   20:20   56.9    26    1.2   297      5.3   807.3    0.00       0    66.4
 125   20:30   56.9    27    1.5   243      5.1   807.0    0.00       0    66.3
 125   20:40   56.6    27    2.7   223      6.1   804.3    0.00       0    66.1
 125   20:50   56.3    28    3.5   220      8.1   801.3    0.00       0    65.9
 125   21:00   55.8    30    4.0   229      8.8   803.5    0.00       0    65.8
 125   21:10   55.6    31    2.8   229      7.5   802.8    0.00       0    65.6
 125   21:20   55.5    32    2.4   223      6.4   805.8    0.00       0    65.5
 125   21:30   55.6    32    1.8   263      5.9   804.9    0.00       0    65.3
 125   21:40   55.7    32    1.7   230      4.5   802.7    0.00       0    65.2
 125   21:50   55.8    32    1.8   214      5.2   802.7    0.00       0    65.0
 125   22:00   55.8    32    1.2   204      7.5   802.6    0.00       0    64.8
 125   22:10   55.7    32    2.2   198      4.5   802.7    0.00       0    64.7
 125   22:20   55.8    31    3.3   174      5.6   806.6    0.00       0    64.6
 125   22:30   56.0    31    1.5   185      3.9   800.7    0.00       0    64.5
 125   22:40   55.7    31    0.8   277      2.6   806.4    0.00       0    64.3
 125   22:50   55.6    31    1.4   234      5.6   809.9    0.00       0    64.2
 125   23:00   55.5    31    1.2   233      3.8   805.4    0.00       0    64.1
 125   23:10   55.2    31    2.1   230      9.0   804.7    0.00       0    64.0
 125   23:20   54.6    30    2.4   245      9.6   803.0    0.00       0    63.8
 125   23:30   54.3    30    2.9   220      7.8   803.5    0.00       0    63.7
 125   23:40   54.1    31    3.7   220      8.0   802.8    0.00       0    63.6
 125   23:50   54.1    31    3.1   209      7.8   801.1    0.00       0    63.5
 126    0:00   54.2    31    2.8   225      6.6   802.3    0.00       0    63.4
 126    0:10   54.3    31    2.2   222      7.1   807.0    0.00       0    63.2
 126    0:20   54.4    31    3.2   201      6.9   803.5    0.00       0    63.1
 126    0:30   54.5    30    3.8   186      7.1   805.1    0.00       0    63.0
 126    0:40   54.3    30    2.7   223      5.6   804.3    0.00       0    62.9
 126    0:50   54.1    31    1.3   205      4.5   805.5    0.00       0    62.7
 126    1:00   54.0    31    0.8   196      2.6   803.7    0.00       0    62.6
 126    1:10   53.6    30    2.4   222      6.9   802.8    0.00       0    62.5
 126    1:20   53.3    30    3.5   202      6.9   802.5    0.00       0    62.4
 126    1:30   53.0    30    3.2   195      7.1   806.3    0.00       0    62.3
 126    1:40   52.8    31    4.5   189      9.6   806.0    0.00       0    62.2

Return to Cedar City, Utah graphs page.


Western Regional Climate Center,wrcc@dri.edu